sensor_id;sensor_type;location;lat;lon;timestamp;temperature;humidity
1994;DHT22;998;49.906;10.908;2023-04-15T00:00:20;8.20;99.90
1994;DHT22;998;49.906;10.908;2023-04-15T00:02:48;8.20;99.90
1994;DHT22;998;49.906;10.908;2023-04-15T00:05:15;8.20;99.90
1994;DHT22;998;49.906;10.908;2023-04-15T00:07:43;8.10;99.90
1994;DHT22;998;49.906;10.908;2023-04-15T00:10:12;8.10;99.90
1994;DHT22;998;49.906;10.908;2023-04-15T00:12:41;8.20;99.90
1994;DHT22;998;49.906;10.908;2023-04-15T00:15:09;8.20;99.90
1994;DHT22;998;49.906;10.908;2023-04-15T00:17:37;8.10;99.90
1994;DHT22;998;49.906;10.908;2023-04-15T00:20:05;8.10;99.90
1994;DHT22;998;49.906;10.908;2023-04-15T00:22:33;8.00;99.90
1994;DHT22;998;49.906;10.908;2023-04-15T00:25:01;8.00;99.90
1994;DHT22;998;49.906;10.908;2023-04-15T00:27:28;8.10;99.90
1994;DHT22;998;49.906;10.908;2023-04-15T00:29:57;8.10;99.90
1994;DHT22;998;49.906;10.908;2023-04-15T00:32:24;8.00;99.90
1994;DHT22;998;49.906;10.908;2023-04-15T00:34:52;8.00;99.90
1994;DHT22;998;49.906;10.908;2023-04-15T00:37:19;8.00;99.90
1994;DHT22;998;49.906;10.908;2023-04-15T00:39:47;8.00;99.90
1994;DHT22;998;49.906;10.908;2023-04-15T00:42:15;8.00;99.90
1994;DHT22;998;49.906;10.908;2023-04-15T00:44:44;8.00;99.90
1994;DHT22;998;49.906;10.908;2023-04-15T00:47:13;8.00;99.90
1994;DHT22;998;49.906;10.908;2023-04-15T00:49:42;8.00;99.90
1994;DHT22;998;49.906;10.908;2023-04-15T00:52:09;8.00;99.90
1994;DHT22;998;49.906;10.908;2023-04-15T00:54:37;8.00;99.90
1994;DHT22;998;49.906;10.908;2023-04-15T00:57:04;8.00;99.90
1994;DHT22;998;49.906;10.908;2023-04-15T00:59:33;8.00;99.90
1994;DHT22;998;49.906;10.908;2023-04-15T01:02:00;8.00;99.90
1994;DHT22;998;49.906;10.908;2023-04-15T01:04:29;8.00;99.90
1994;DHT22;998;49.906;10.908;2023-04-15T01:06:57;8.00;99.90
1994;DHT22;998;49.906;10.908;2023-04-15T01:09:24;8.00;99.90
1994;DHT22;998;49.906;10.908;2023-04-15T01:11:52;7.90;99.90
1994;DHT22;998;49.906;10.908;2023-04-15T01:14:20;7.80;99.90
1994;DHT22;998;49.906;10.908;2023-04-15T01:16:48;7.80;99.90
1994;DHT22;998;49.906;10.908;2023-04-15T01:19:16;7.80;99.90
1994;DHT22;998;49.906;10.908;2023-04-15T01:21:45;7.80;99.90
1994;DHT22;998;49.906;10.908;2023-04-15T01:24:15;7.80;99.90
1994;DHT22;998;49.906;10.908;2023-04-15T01:26:45;7.80;99.90
1994;DHT22;998;49.906;10.908;2023-04-15T01:29:14;7.90;99.90
1994;DHT22;998;49.906;10.908;2023-04-15T01:31:49;7.90;99.90
1994;DHT22;998;49.906;10.908;2023-04-15T01:34:17;7.90;99.90
1994;DHT22;998;49.906;10.908;2023-04-15T01:36:44;7.90;99.90
1994;DHT22;998;49.906;10.908;2023-04-15T01:39:12;7.90;99.90
1994;DHT22;998;49.906;10.908;2023-04-15T01:41:39;7.80;99.90
1994;DHT22;998;49.906;10.908;2023-04-15T01:44:09;7.80;99.90
1994;DHT22;998;49.906;10.908;2023-04-15T01:46:36;7.80;99.90
1994;DHT22;998;49.906;10.908;2023-04-15T01:49:03;7.80;99.90
1994;DHT22;998;49.906;10.908;2023-04-15T01:51:31;7.80;99.90
1994;DHT22;998;49.906;10.908;2023-04-15T01:53:59;7.80;99.90
1994;DHT22;998;49.906;10.908;2023-04-15T01:56:29;7.80;99.90
1994;DHT22;998;49.906;10.908;2023-04-15T01:58:56;7.70;99.90
1994;DHT22;998;49.906;10.908;2023-04-15T02:01:25;7.70;99.90
1994;DHT22;998;49.906;10.908;2023-04-15T02:03:52;7.70;99.90
1994;DHT22;998;49.906;10.908;2023-04-15T02:06:19;7.70;99.90
1994;DHT22;998;49.906;10.908;2023-04-15T02:08:47;7.70;99.90
1994;DHT22;998;49.906;10.908;2023-04-15T02:11:14;7.80;99.90
1994;DHT22;998;49.906;10.908;2023-04-15T02:13:41;7.80;99.90
1994;DHT22;998;49.906;10.908;2023-04-15T02:16:15;7.70;99.90
1994;DHT22;998;49.906;10.908;2023-04-15T02:18:45;7.70;99.90
1994;DHT22;998;49.906;10.908;2023-04-15T02:21:13;7.70;99.90
1994;DHT22;998;49.906;10.908;2023-04-15T02:23:40;7.70;99.90
1994;DHT22;998;49.906;10.908;2023-04-15T02:26:08;7.80;99.90
1994;DHT22;998;49.906;10.908;2023-04-15T02:28:36;7.80;99.90
1994;DHT22;998;49.906;10.908;2023-04-15T02:31:05;7.80;99.90
1994;DHT22;998;49.906;10.908;2023-04-15T02:33:33;7.80;99.90
1994;DHT22;998;49.906;10.908;2023-04-15T02:36:01;7.80;99.90
1994;DHT22;998;49.906;10.908;2023-04-15T02:38:28;7.80;99.90
1994;DHT22;998;49.906;10.908;2023-04-15T02:40:56;7.80;99.90
1994;DHT22;998;49.906;10.908;2023-04-15T02:43:24;7.80;99.90
1994;DHT22;998;49.906;10.908;2023-04-15T02:45:51;7.70;99.90
1994;DHT22;998;49.906;10.908;2023-04-15T02:48:18;7.70;99.90
1994;DHT22;998;49.906;10.908;2023-04-15T02:50:46;7.60;99.90
1994;DHT22;998;49.906;10.908;2023-04-15T02:53:15;7.50;99.90
1994;DHT22;998;49.906;10.908;2023-04-15T02:55:43;7.50;99.90
1994;DHT22;998;49.906;10.908;2023-04-15T02:58:11;7.50;99.90
1994;DHT22;998;49.906;10.908;2023-04-15T03:00:38;7.50;99.90
1994;DHT22;998;49.906;10.908;2023-04-15T03:03:05;7.50;99.90
1994;DHT22;998;49.906;10.908;2023-04-15T03:05:33;7.50;99.90
1994;DHT22;998;49.906;10.908;2023-04-15T03:08:03;7.60;99.90
1994;DHT22;998;49.906;10.908;2023-04-15T03:10:32;7.60;99.90
1994;DHT22;998;49.906;10.908;2023-04-15T03:13:00;7.60;99.90
1994;DHT22;998;49.906;10.908;2023-04-15T03:15:27;7.60;99.90
1994;DHT22;998;49.906;10.908;2023-04-15T03:17:55;7.60;99.90
1994;DHT22;998;49.906;10.908;2023-04-15T03:20:22;7.60;99.90
1994;DHT22;998;49.906;10.908;2023-04-15T03:22:49;7.60;99.90
1994;DHT22;998;49.906;10.908;2023-04-15T03:25:17;7.70;99.90
1994;DHT22;998;49.906;10.908;2023-04-15T03:27:45;7.70;99.90
1994;DHT22;998;49.906;10.908;2023-04-15T03:30:13;7.60;99.90
1994;DHT22;998;49.906;10.908;2023-04-15T03:32:40;7.60;99.90
1994;DHT22;998;49.906;10.908;2023-04-15T03:35:08;7.60;99.90
1994;DHT22;998;49.906;10.908;2023-04-15T03:37:36;7.70;99.90
1994;DHT22;998;49.906;10.908;2023-04-15T03:40:03;7.70;99.90
1994;DHT22;998;49.906;10.908;2023-04-15T03:42:31;7.60;99.90
1994;DHT22;998;49.906;10.908;2023-04-15T03:45:00;7.70;99.90
1994;DHT22;998;49.906;10.908;2023-04-15T03:47:28;7.60;99.90
1994;DHT22;998;49.906;10.908;2023-04-15T03:49:55;7.70;99.90
1994;DHT22;998;49.906;10.908;2023-04-15T03:52:23;7.70;99.90
1994;DHT22;998;49.906;10.908;2023-04-15T03:54:50;7.70;99.90
1994;DHT22;998;49.906;10.908;2023-04-15T03:57:18;7.60;99.90
1994;DHT22;998;49.906;10.908;2023-04-15T03:59:45;7.70;99.90
1994;DHT22;998;49.906;10.908;2023-04-15T04:02:14;7.70;99.90
1994;DHT22;998;49.906;10.908;2023-04-15T04:04:41;7.70;99.90
1994;DHT22;998;49.906;10.908;2023-04-15T04:07:14;7.60;99.90
1994;DHT22;998;49.906;10.908;2023-04-15T04:09:41;7.60;99.90
1994;DHT22;998;49.906;10.908;2023-04-15T04:12:09;7.60;99.90
1994;DHT22;998;49.906;10.908;2023-04-15T04:14:36;7.60;99.90
1994;DHT22;998;49.906;10.908;2023-04-15T04:17:04;7.60;99.90
1994;DHT22;998;49.906;10.908;2023-04-15T04:19:33;7.60;99.90
1994;DHT22;998;49.906;10.908;2023-04-15T04:22:00;7.60;99.90
1994;DHT22;998;49.906;10.908;2023-04-15T04:24:28;7.60;99.90
1994;DHT22;998;49.906;10.908;2023-04-15T04:26:55;7.60;99.90
1994;DHT22;998;49.906;10.908;2023-04-15T04:29:23;7.60;99.90
1994;DHT22;998;49.906;10.908;2023-04-15T04:31:50;7.60;99.90
1994;DHT22;998;49.906;10.908;2023-04-15T04:34:18;7.60;99.90
1994;DHT22;998;49.906;10.908;2023-04-15T04:36:46;7.60;99.90
1994;DHT22;998;49.906;10.908;2023-04-15T04:39:14;7.60;99.90
1994;DHT22;998;49.906;10.908;2023-04-15T04:41:41;7.60;99.90
1994;DHT22;998;49.906;10.908;2023-04-15T04:44:08;7.60;99.90
1994;DHT22;998;49.906;10.908;2023-04-15T04:46:36;7.60;99.90
1994;DHT22;998;49.906;10.908;2023-04-15T04:49:03;7.60;99.90
1994;DHT22;998;49.906;10.908;2023-04-15T04:51:31;7.60;99.90
1994;DHT22;998;49.906;10.908;2023-04-15T04:54:00;7.60;99.90
1994;DHT22;998;49.906;10.908;2023-04-15T04:56:27;7.60;99.90
1994;DHT22;998;49.906;10.908;2023-04-15T04:58:55;7.60;99.90
1994;DHT22;998;49.906;10.908;2023-04-15T05:01:22;7.60;99.90
1994;DHT22;998;49.906;10.908;2023-04-15T05:03:51;7.60;99.90
1994;DHT22;998;49.906;10.908;2023-04-15T05:06:19;7.60;99.90
1994;DHT22;998;49.906;10.908;2023-04-15T05:08:47;7.60;99.90
1994;DHT22;998;49.906;10.908;2023-04-15T05:11:16;7.70;99.90
1994;DHT22;998;49.906;10.908;2023-04-15T05:13:43;7.70;99.90
1994;DHT22;998;49.906;10.908;2023-04-15T05:16:11;7.70;99.90
1994;DHT22;998;49.906;10.908;2023-04-15T05:18:38;7.70;99.90
1994;DHT22;998;49.906;10.908;2023-04-15T05:21:06;7.60;99.90
1994;DHT22;998;49.906;10.908;2023-04-15T05:23:33;7.60;99.90
1994;DHT22;998;49.906;10.908;2023-04-15T05:26:00;7.60;99.90
1994;DHT22;998;49.906;10.908;2023-04-15T05:28:29;7.60;99.90
1994;DHT22;998;49.906;10.908;2023-04-15T05:30:57;7.60;99.90
1994;DHT22;998;49.906;10.908;2023-04-15T05:33:24;7.60;99.90
1994;DHT22;998;49.906;10.908;2023-04-15T05:35:52;7.60;99.90
1994;DHT22;998;49.906;10.908;2023-04-15T05:38:19;7.70;99.90
1994;DHT22;998;49.906;10.908;2023-04-15T05:40:47;7.60;99.90
1994;DHT22;998;49.906;10.908;2023-04-15T05:43:14;7.60;99.90
1994;DHT22;998;49.906;10.908;2023-04-15T05:45:43;7.60;99.90
1994;DHT22;998;49.906;10.908;2023-04-15T05:48:10;7.60;99.90
1994;DHT22;998;49.906;10.908;2023-04-15T05:50:40;7.60;99.90
1994;DHT22;998;49.906;10.908;2023-04-15T05:53:08;7.60;99.90
1994;DHT22;998;49.906;10.908;2023-04-15T05:55:35;7.60;99.90
1994;DHT22;998;49.906;10.908;2023-04-15T05:58:02;7.60;99.90
1994;DHT22;998;49.906;10.908;2023-04-15T06:00:30;7.70;99.90
1994;DHT22;998;49.906;10.908;2023-04-15T06:02:59;7.60;99.90
1994;DHT22;998;49.906;10.908;2023-04-15T06:05:26;7.70;99.90
1994;DHT22;998;49.906;10.908;2023-04-15T06:07:54;7.60;99.90
1994;DHT22;998;49.906;10.908;2023-04-15T06:10:21;7.70;99.90
1994;DHT22;998;49.906;10.908;2023-04-15T06:12:49;7.70;99.90
1994;DHT22;998;49.906;10.908;2023-04-15T06:15:16;7.70;99.90
1994;DHT22;998;49.906;10.908;2023-04-15T06:17:43;7.60;99.90
1994;DHT22;998;49.906;10.908;2023-04-15T06:20:12;7.60;99.90
1994;DHT22;998;49.906;10.908;2023-04-15T06:22:40;7.60;99.90
1994;DHT22;998;49.906;10.908;2023-04-15T06:25:08;7.60;99.90
1994;DHT22;998;49.906;10.908;2023-04-15T06:27:36;7.60;99.90
1994;DHT22;998;49.906;10.908;2023-04-15T06:30:04;7.60;99.90
1994;DHT22;998;49.906;10.908;2023-04-15T06:32:31;7.70;99.90
1994;DHT22;998;49.906;10.908;2023-04-15T06:34:59;7.70;99.90
1994;DHT22;998;49.906;10.908;2023-04-15T06:37:27;7.70;99.90
1994;DHT22;998;49.906;10.908;2023-04-15T06:39:55;7.70;99.90
1994;DHT22;998;49.906;10.908;2023-04-15T06:42:23;7.70;99.90
1994;DHT22;998;49.906;10.908;2023-04-15T06:44:50;7.70;99.90
1994;DHT22;998;49.906;10.908;2023-04-15T06:47:17;7.70;99.90
1994;DHT22;998;49.906;10.908;2023-04-15T06:49:45;7.70;99.90
1994;DHT22;998;49.906;10.908;2023-04-15T06:52:12;7.70;99.90
1994;DHT22;998;49.906;10.908;2023-04-15T06:54:42;7.70;99.90
1994;DHT22;998;49.906;10.908;2023-04-15T06:57:10;7.70;99.90
1994;DHT22;998;49.906;10.908;2023-04-15T06:59:37;7.80;99.90
1994;DHT22;998;49.906;10.908;2023-04-15T07:02:05;7.80;99.90
1994;DHT22;998;49.906;10.908;2023-04-15T07:04:34;7.80;99.90
1994;DHT22;998;49.906;10.908;2023-04-15T07:07:01;7.70;99.90
1994;DHT22;998;49.906;10.908;2023-04-15T07:09:28;7.80;99.90
1994;DHT22;998;49.906;10.908;2023-04-15T07:11:58;7.80;99.90
1994;DHT22;998;49.906;10.908;2023-04-15T07:14:26;7.80;99.90
1994;DHT22;998;49.906;10.908;2023-04-15T07:16:54;7.80;99.90
1994;DHT22;998;49.906;10.908;2023-04-15T07:19:22;7.80;99.90
1994;DHT22;998;49.906;10.908;2023-04-15T07:21:49;7.80;99.90
1994;DHT22;998;49.906;10.908;2023-04-15T07:24:17;7.80;99.90
1994;DHT22;998;49.906;10.908;2023-04-15T07:26:45;7.80;99.90
1994;DHT22;998;49.906;10.908;2023-04-15T07:29:14;7.90;99.90
1994;DHT22;998;49.906;10.908;2023-04-15T07:31:41;7.90;99.90
1994;DHT22;998;49.906;10.908;2023-04-15T07:34:09;7.80;99.90
1994;DHT22;998;49.906;10.908;2023-04-15T07:36:36;7.90;99.90
1994;DHT22;998;49.906;10.908;2023-04-15T07:39:05;7.80;99.90
1994;DHT22;998;49.906;10.908;2023-04-15T07:41:32;7.80;99.90
1994;DHT22;998;49.906;10.908;2023-04-15T07:44:00;7.80;99.90
1994;DHT22;998;49.906;10.908;2023-04-15T07:46:29;7.90;99.90
1994;DHT22;998;49.906;10.908;2023-04-15T07:48:56;7.80;99.90
1994;DHT22;998;49.906;10.908;2023-04-15T07:51:24;7.90;99.90
1994;DHT22;998;49.906;10.908;2023-04-15T07:53:51;7.90;99.90
1994;DHT22;998;49.906;10.908;2023-04-15T07:56:19;7.90;99.90
1994;DHT22;998;49.906;10.908;2023-04-15T07:58:47;7.90;99.90
1994;DHT22;998;49.906;10.908;2023-04-15T08:01:14;7.70;99.90
1994;DHT22;998;49.906;10.908;2023-04-15T08:03:43;7.70;99.90
1994;DHT22;998;49.906;10.908;2023-04-15T08:06:10;7.70;99.90
1994;DHT22;998;49.906;10.908;2023-04-15T08:08:38;7.70;99.90
1994;DHT22;998;49.906;10.908;2023-04-15T08:11:05;7.80;99.90
1994;DHT22;998;49.906;10.908;2023-04-15T08:13:32;7.70;99.90
1994;DHT22;998;49.906;10.908;2023-04-15T08:16:19;7.80;99.90
1994;DHT22;998;49.906;10.908;2023-04-15T08:18:49;7.70;99.90
1994;DHT22;998;49.906;10.908;2023-04-15T08:21:18;7.60;99.90
1994;DHT22;998;49.906;10.908;2023-04-15T08:23:47;7.60;99.90
1994;DHT22;998;49.906;10.908;2023-04-15T08:26:14;7.60;99.90
1994;DHT22;998;49.906;10.908;2023-04-15T08:28:42;7.70;99.90
1994;DHT22;998;49.906;10.908;2023-04-15T08:31:11;7.80;99.90
1994;DHT22;998;49.906;10.908;2023-04-15T08:33:38;7.70;99.90
1994;DHT22;998;49.906;10.908;2023-04-15T08:36:08;7.70;99.90
1994;DHT22;998;49.906;10.908;2023-04-15T08:38:35;7.80;99.90
1994;DHT22;998;49.906;10.908;2023-04-15T08:41:08;7.80;99.90
1994;DHT22;998;49.906;10.908;2023-04-15T08:43:53;7.90;99.90
1994;DHT22;998;49.906;10.908;2023-04-15T08:46:23;7.90;99.90
1994;DHT22;998;49.906;10.908;2023-04-15T08:48:51;7.90;99.90
1994;DHT22;998;49.906;10.908;2023-04-15T08:51:24;7.90;99.90
1994;DHT22;998;49.906;10.908;2023-04-15T08:53:53;7.90;99.90
1994;DHT22;998;49.906;10.908;2023-04-15T08:56:23;7.90;99.90
1994;DHT22;998;49.906;10.908;2023-04-15T08:58:51;7.90;99.90
1994;DHT22;998;49.906;10.908;2023-04-15T09:01:19;7.90;99.90
1994;DHT22;998;49.906;10.908;2023-04-15T09:03:48;7.90;99.90
1994;DHT22;998;49.906;10.908;2023-04-15T09:06:16;7.90;99.90
1994;DHT22;998;49.906;10.908;2023-04-15T09:08:45;7.90;99.90
1994;DHT22;998;49.906;10.908;2023-04-15T09:11:12;7.90;99.90
1994;DHT22;998;49.906;10.908;2023-04-15T09:13:40;7.90;99.90
1994;DHT22;998;49.906;10.908;2023-04-15T09:16:07;8.00;99.90
1994;DHT22;998;49.906;10.908;2023-04-15T09:18:37;7.90;99.90
1994;DHT22;998;49.906;10.908;2023-04-15T09:21:05;8.00;99.90
1994;DHT22;998;49.906;10.908;2023-04-15T09:23:34;8.00;99.90
1994;DHT22;998;49.906;10.908;2023-04-15T09:26:03;8.00;99.90
1994;DHT22;998;49.906;10.908;2023-04-15T09:28:32;8.00;99.90
1994;DHT22;998;49.906;10.908;2023-04-15T09:31:02;8.00;99.90
1994;DHT22;998;49.906;10.908;2023-04-15T09:33:29;8.00;99.90
1994;DHT22;998;49.906;10.908;2023-04-15T09:35:59;8.00;99.90
1994;DHT22;998;49.906;10.908;2023-04-15T09:38:26;8.00;99.90
1994;DHT22;998;49.906;10.908;2023-04-15T09:40:54;8.00;99.90
1994;DHT22;998;49.906;10.908;2023-04-15T09:43:36;8.10;99.90
1994;DHT22;998;49.906;10.908;2023-04-15T09:46:04;8.10;99.90
1994;DHT22;998;49.906;10.908;2023-04-15T09:48:32;8.10;99.90
1994;DHT22;998;49.906;10.908;2023-04-15T09:51:00;8.10;99.90
1994;DHT22;998;49.906;10.908;2023-04-15T09:53:27;8.10;99.90
1994;DHT22;998;49.906;10.908;2023-04-15T09:55:56;8.10;99.90
1994;DHT22;998;49.906;10.908;2023-04-15T09:58:26;8.10;99.90
1994;DHT22;998;49.906;10.908;2023-04-15T10:00:55;8.10;99.90
1994;DHT22;998;49.906;10.908;2023-04-15T10:03:24;8.10;99.90
1994;DHT22;998;49.906;10.908;2023-04-15T10:05:53;8.20;99.90
1994;DHT22;998;49.906;10.908;2023-04-15T10:08:23;8.10;99.90
1994;DHT22;998;49.906;10.908;2023-04-15T10:10:51;8.10;99.90
1994;DHT22;998;49.906;10.908;2023-04-15T10:13:20;8.10;99.90
1994;DHT22;998;49.906;10.908;2023-04-15T10:15:51;8.20;99.90
1994;DHT22;998;49.906;10.908;2023-04-15T10:18:20;8.10;99.90
1994;DHT22;998;49.906;10.908;2023-04-15T10:20:48;8.20;99.90
1994;DHT22;998;49.906;10.908;2023-04-15T10:23:15;8.20;99.90
1994;DHT22;998;49.906;10.908;2023-04-15T10:25:45;8.20;99.90
1994;DHT22;998;49.906;10.908;2023-04-15T10:28:14;8.20;99.90
1994;DHT22;998;49.906;10.908;2023-04-15T10:30:43;8.20;99.90
1994;DHT22;998;49.906;10.908;2023-04-15T10:33:13;8.20;99.90
1994;DHT22;998;49.906;10.908;2023-04-15T10:35:41;8.20;99.90
1994;DHT22;998;49.906;10.908;2023-04-15T10:38:30;8.20;99.90
1994;DHT22;998;49.906;10.908;2023-04-15T10:41:12;8.10;99.90
1994;DHT22;998;49.906;10.908;2023-04-15T10:43:45;8.20;99.90
1994;DHT22;998;49.906;10.908;2023-04-15T10:46:17;8.20;99.90
1994;DHT22;998;49.906;10.908;2023-04-15T10:48:50;8.20;99.90
1994;DHT22;998;49.906;10.908;2023-04-15T10:51:27;8.30;99.90
1994;DHT22;998;49.906;10.908;2023-04-15T10:53:58;8.30;99.90
1994;DHT22;998;49.906;10.908;2023-04-15T10:56:27;8.30;99.90
1994;DHT22;998;49.906;10.908;2023-04-15T10:58:54;8.40;99.90
1994;DHT22;998;49.906;10.908;2023-04-15T11:01:22;8.40;99.90
1994;DHT22;998;49.906;10.908;2023-04-15T11:04:11;8.50;99.90
1994;DHT22;998;49.906;10.908;2023-04-15T11:06:43;8.50;99.90
1994;DHT22;998;49.906;10.908;2023-04-15T11:09:30;8.50;99.90
1994;DHT22;998;49.906;10.908;2023-04-15T11:12:05;8.50;99.90
1994;DHT22;998;49.906;10.908;2023-04-15T11:14:39;8.40;99.90
1994;DHT22;998;49.906;10.908;2023-04-15T11:17:08;8.40;99.90
1994;DHT22;998;49.906;10.908;2023-04-15T11:19:37;8.40;99.90
1994;DHT22;998;49.906;10.908;2023-04-15T11:22:08;8.40;99.90
1994;DHT22;998;49.906;10.908;2023-04-15T11:24:36;8.40;99.90
1994;DHT22;998;49.906;10.908;2023-04-15T11:27:20;8.50;99.90
1994;DHT22;998;49.906;10.908;2023-04-15T11:29:48;8.50;99.90
1994;DHT22;998;49.906;10.908;2023-04-15T11:32:15;8.50;99.90
1994;DHT22;998;49.906;10.908;2023-04-15T11:34:46;8.50;99.90
1994;DHT22;998;49.906;10.908;2023-04-15T11:37:13;8.50;99.90
1994;DHT22;998;49.906;10.908;2023-04-15T11:39:42;8.50;99.90
1994;DHT22;998;49.906;10.908;2023-04-15T11:42:16;8.50;99.90
1994;DHT22;998;49.906;10.908;2023-04-15T11:44:43;8.50;99.90
1994;DHT22;998;49.906;10.908;2023-04-15T11:47:21;8.50;99.90
1994;DHT22;998;49.906;10.908;2023-04-15T11:49:50;8.50;99.90
1994;DHT22;998;49.906;10.908;2023-04-15T11:52:18;8.50;99.90
1994;DHT22;998;49.906;10.908;2023-04-15T11:54:45;8.50;99.90
1994;DHT22;998;49.906;10.908;2023-04-15T11:57:13;8.50;99.90
1994;DHT22;998;49.906;10.908;2023-04-15T11:59:44;8.60;99.90
1994;DHT22;998;49.906;10.908;2023-04-15T12:02:11;8.60;99.90
1994;DHT22;998;49.906;10.908;2023-04-15T12:04:39;8.60;99.90
1994;DHT22;998;49.906;10.908;2023-04-15T12:07:08;8.60;99.90
1994;DHT22;998;49.906;10.908;2023-04-15T12:09:37;8.60;99.90
1994;DHT22;998;49.906;10.908;2023-04-15T12:12:04;8.60;99.90
1994;DHT22;998;49.906;10.908;2023-04-15T12:14:32;8.60;99.90
1994;DHT22;998;49.906;10.908;2023-04-15T12:17:01;8.60;99.90
1994;DHT22;998;49.906;10.908;2023-04-15T12:19:30;8.60;99.90
1994;DHT22;998;49.906;10.908;2023-04-15T12:22:02;8.60;99.90
1994;DHT22;998;49.906;10.908;2023-04-15T12:24:32;8.50;99.90
1994;DHT22;998;49.906;10.908;2023-04-15T12:27:04;8.50;99.90
1994;DHT22;998;49.906;10.908;2023-04-15T12:29:33;8.60;99.90
1994;DHT22;998;49.906;10.908;2023-04-15T12:32:04;8.60;99.90
1994;DHT22;998;49.906;10.908;2023-04-15T12:34:33;8.70;99.90
1994;DHT22;998;49.906;10.908;2023-04-15T12:37:02;8.70;99.90
1994;DHT22;998;49.906;10.908;2023-04-15T12:39:34;8.70;99.90
1994;DHT22;998;49.906;10.908;2023-04-15T12:42:02;8.70;99.90
1994;DHT22;998;49.906;10.908;2023-04-15T12:44:30;8.70;99.90
1994;DHT22;998;49.906;10.908;2023-04-15T12:46:58;8.80;99.90
1994;DHT22;998;49.906;10.908;2023-04-15T12:49:26;8.80;99.90
1994;DHT22;998;49.906;10.908;2023-04-15T12:51:56;8.80;99.90
1994;DHT22;998;49.906;10.908;2023-04-15T12:54:24;8.80;99.90
1994;DHT22;998;49.906;10.908;2023-04-15T12:56:54;8.80;99.90
1994;DHT22;998;49.906;10.908;2023-04-15T12:59:21;8.80;99.90
1994;DHT22;998;49.906;10.908;2023-04-15T13:01:50;8.90;99.90
1994;DHT22;998;49.906;10.908;2023-04-15T13:04:18;8.90;99.90
1994;DHT22;998;49.906;10.908;2023-04-15T13:06:46;8.90;99.90
1994;DHT22;998;49.906;10.908;2023-04-15T13:09:14;8.90;99.90
1994;DHT22;998;49.906;10.908;2023-04-15T13:11:41;8.80;99.90
1994;DHT22;998;49.906;10.908;2023-04-15T13:14:10;8.80;99.90
1994;DHT22;998;49.906;10.908;2023-04-15T13:16:38;8.80;99.90
1994;DHT22;998;49.906;10.908;2023-04-15T13:19:05;8.80;99.90
1994;DHT22;998;49.906;10.908;2023-04-15T13:21:33;8.80;99.90
1994;DHT22;998;49.906;10.908;2023-04-15T13:24:00;8.80;99.90
1994;DHT22;998;49.906;10.908;2023-04-15T13:26:27;8.80;99.90
1994;DHT22;998;49.906;10.908;2023-04-15T13:28:56;8.80;99.90
1994;DHT22;998;49.906;10.908;2023-04-15T13:31:24;8.80;99.90
1994;DHT22;998;49.906;10.908;2023-04-15T13:33:52;8.80;99.90
1994;DHT22;998;49.906;10.908;2023-04-15T13:36:19;8.80;99.90
1994;DHT22;998;49.906;10.908;2023-04-15T13:38:47;8.80;99.90
1994;DHT22;998;49.906;10.908;2023-04-15T13:41:14;8.80;99.90
1994;DHT22;998;49.906;10.908;2023-04-15T13:43:41;8.80;99.90
1994;DHT22;998;49.906;10.908;2023-04-15T13:46:09;8.80;99.90
1994;DHT22;998;49.906;10.908;2023-04-15T13:48:38;8.80;99.90
1994;DHT22;998;49.906;10.908;2023-04-15T13:51:05;8.70;99.90
1994;DHT22;998;49.906;10.908;2023-04-15T13:53:33;8.70;99.90
1994;DHT22;998;49.906;10.908;2023-04-15T13:56:01;8.80;99.90
1994;DHT22;998;49.906;10.908;2023-04-15T13:58:28;8.80;99.90
1994;DHT22;998;49.906;10.908;2023-04-15T14:00:56;8.80;99.90
1994;DHT22;998;49.906;10.908;2023-04-15T14:03:23;8.80;99.90
1994;DHT22;998;49.906;10.908;2023-04-15T14:05:52;8.80;99.90
1994;DHT22;998;49.906;10.908;2023-04-15T14:08:21;8.80;99.90
1994;DHT22;998;49.906;10.908;2023-04-15T14:10:48;8.80;99.90
1994;DHT22;998;49.906;10.908;2023-04-15T14:13:16;8.80;99.90
1994;DHT22;998;49.906;10.908;2023-04-15T14:15:44;8.80;99.90
1994;DHT22;998;49.906;10.908;2023-04-15T14:18:11;8.80;99.90
1994;DHT22;998;49.906;10.908;2023-04-15T14:20:39;8.80;99.90
1994;DHT22;998;49.906;10.908;2023-04-15T14:23:07;8.80;99.90
1994;DHT22;998;49.906;10.908;2023-04-15T14:25:35;8.80;99.90
1994;DHT22;998;49.906;10.908;2023-04-15T14:28:03;8.80;99.90
1994;DHT22;998;49.906;10.908;2023-04-15T14:30:31;8.80;99.90
1994;DHT22;998;49.906;10.908;2023-04-15T14:32:58;8.80;99.90
1994;DHT22;998;49.906;10.908;2023-04-15T14:35:26;8.70;99.90
1994;DHT22;998;49.906;10.908;2023-04-15T14:37:53;8.80;99.90
1994;DHT22;998;49.906;10.908;2023-04-15T14:40:22;8.70;99.90
1994;DHT22;998;49.906;10.908;2023-04-15T14:42:50;8.80;99.90
1994;DHT22;998;49.906;10.908;2023-04-15T14:45:17;8.70;99.90
1994;DHT22;998;49.906;10.908;2023-04-15T14:47:45;8.80;99.90
1994;DHT22;998;49.906;10.908;2023-04-15T14:50:12;8.80;99.90
1994;DHT22;998;49.906;10.908;2023-04-15T14:52:40;8.80;99.90
1994;DHT22;998;49.906;10.908;2023-04-15T14:55:09;8.80;99.90
1994;DHT22;998;49.906;10.908;2023-04-15T14:57:38;8.80;99.90
1994;DHT22;998;49.906;10.908;2023-04-15T15:00:07;8.80;99.90
1994;DHT22;998;49.906;10.908;2023-04-15T15:02:36;8.80;99.90
1994;DHT22;998;49.906;10.908;2023-04-15T15:05:04;8.80;99.90
1994;DHT22;998;49.906;10.908;2023-04-15T15:07:32;8.80;99.90
1994;DHT22;998;49.906;10.908;2023-04-15T15:10:00;8.90;99.90
1994;DHT22;998;49.906;10.908;2023-04-15T15:12:28;8.90;99.90
1994;DHT22;998;49.906;10.908;2023-04-15T15:14:58;8.90;99.90
1994;DHT22;998;49.906;10.908;2023-04-15T15:17:26;8.90;99.90
1994;DHT22;998;49.906;10.908;2023-04-15T15:19:53;8.90;99.90
1994;DHT22;998;49.906;10.908;2023-04-15T15:22:20;8.90;99.90
1994;DHT22;998;49.906;10.908;2023-04-15T15:24:48;8.90;99.90
1994;DHT22;998;49.906;10.908;2023-04-15T15:27:15;9.00;99.90
1994;DHT22;998;49.906;10.908;2023-04-15T15:29:43;9.00;99.90
1994;DHT22;998;49.906;10.908;2023-04-15T15:32:11;9.00;99.90
1994;DHT22;998;49.906;10.908;2023-04-15T15:34:39;9.00;99.90
1994;DHT22;998;49.906;10.908;2023-04-15T15:37:06;9.00;99.90
1994;DHT22;998;49.906;10.908;2023-04-15T15:39:34;9.00;99.90
1994;DHT22;998;49.906;10.908;2023-04-15T15:42:02;9.10;99.90
1994;DHT22;998;49.906;10.908;2023-04-15T15:44:29;9.10;99.90
1994;DHT22;998;49.906;10.908;2023-04-15T15:46:56;9.10;99.90
1994;DHT22;998;49.906;10.908;2023-04-15T15:49:24;9.10;99.90
1994;DHT22;998;49.906;10.908;2023-04-15T15:51:52;9.10;99.90
1994;DHT22;998;49.906;10.908;2023-04-15T15:54:19;9.10;99.90
1994;DHT22;998;49.906;10.908;2023-04-15T15:56:46;9.10;99.90
1994;DHT22;998;49.906;10.908;2023-04-15T15:59:12;9.10;99.90
1994;DHT22;998;49.906;10.908;2023-04-15T16:01:39;9.10;99.90
1994;DHT22;998;49.906;10.908;2023-04-15T16:04:06;9.10;99.90
1994;DHT22;998;49.906;10.908;2023-04-15T16:06:35;9.10;99.90
1994;DHT22;998;49.906;10.908;2023-04-15T16:09:02;9.10;99.90
1994;DHT22;998;49.906;10.908;2023-04-15T16:11:29;9.20;99.90
1994;DHT22;998;49.906;10.908;2023-04-15T16:13:56;9.10;99.90
1994;DHT22;998;49.906;10.908;2023-04-15T16:16:23;9.10;99.90
1994;DHT22;998;49.906;10.908;2023-04-15T16:18:50;9.10;99.90
1994;DHT22;998;49.906;10.908;2023-04-15T16:21:17;9.10;99.90
1994;DHT22;998;49.906;10.908;2023-04-15T16:23:46;9.20;99.90